sensor_id;sensor_type;location;lat;lon;timestamp;P1;durP1;ratioP1;P2;durP2;ratioP2
74177;SDS011;62540;48.456;-4.456;2023-09-07T00:00:18;3.00;;;2.50;;
74177;SDS011;62540;48.456;-4.456;2023-09-07T00:02:44;9.00;;;7.00;;
74177;SDS011;62540;48.456;-4.456;2023-09-07T00:05:09;7.00;;;7.00;;
74177;SDS011;62540;48.456;-4.456;2023-09-07T00:07:35;8.50;;;7.50;;
74177;SDS011;62540;48.456;-4.456;2023-09-07T00:10:01;9.00;;;8.00;;
74177;SDS011;62540;48.456;-4.456;2023-09-07T00:12:27;7.25;;;7.00;;
74177;SDS011;62540;48.456;-4.456;2023-09-07T00:14:53;7.50;;;6.75;;
74177;SDS011;62540;48.456;-4.456;2023-09-07T00:17:19;7.50;;;6.75;;
74177;SDS011;62540;48.456;-4.456;2023-09-07T00:19:45;8.00;;;6.25;;
74177;SDS011;62540;48.456;-4.456;2023-09-07T00:22:13;5.50;;;5.25;;
74177;SDS011;62540;48.456;-4.456;2023-09-07T00:24:39;8.00;;;7.50;;
74177;SDS011;62540;48.456;-4.456;2023-09-07T00:27:04;8.00;;;7.00;;
74177;SDS011;62540;48.456;-4.456;2023-09-07T00:29:31;7.50;;;6.50;;
74177;SDS011;62540;48.456;-4.456;2023-09-07T00:31:56;6.75;;;5.50;;
74177;SDS011;62540;48.456;-4.456;2023-09-07T00:34:22;7.00;;;6.50;;
74177;SDS011;62540;48.456;-4.456;2023-09-07T00:36:47;6.50;;;5.75;;
74177;SDS011;62540;48.456;-4.456;2023-09-07T00:39:13;7.75;;;7.00;;
74177;SDS011;62540;48.456;-4.456;2023-09-07T00:41:38;6.75;;;5.75;;
74177;SDS011;62540;48.456;-4.456;2023-09-07T00:44:04;8.00;;;7.00;;
74177;SDS011;62540;48.456;-4.456;2023-09-07T00:46:29;7.75;;;7.00;;
74177;SDS011;62540;48.456;-4.456;2023-09-07T00:48:55;7.75;;;6.00;;
74177;SDS011;62540;48.456;-4.456;2023-09-07T00:51:22;7.00;;;6.25;;
74177;SDS011;62540;48.456;-4.456;2023-09-07T00:53:47;8.00;;;7.00;;
74177;SDS011;62540;48.456;-4.456;2023-09-07T00:56:14;8.25;;;7.00;;
74177;SDS011;62540;48.456;-4.456;2023-09-07T00:58:39;6.50;;;5.75;;
74177;SDS011;62540;48.456;-4.456;2023-09-07T01:01:05;8.25;;;8.00;;
74177;SDS011;62540;48.456;-4.456;2023-09-07T01:03:30;9.25;;;7.50;;
74177;SDS011;62540;48.456;-4.456;2023-09-07T01:05:56;6.50;;;6.50;;
74177;SDS011;62540;48.456;-4.456;2023-09-07T01:08:26;8.75;;;6.50;;
74177;SDS011;62540;48.456;-4.456;2023-09-07T01:11:00;6.25;;;6.25;;
74177;SDS011;62540;48.456;-4.456;2023-09-07T01:13:25;7.50;;;5.75;;
74177;SDS011;62540;48.456;-4.456;2023-09-07T01:15:51;8.00;;;7.00;;
74177;SDS011;62540;48.456;-4.456;2023-09-07T01:18:17;8.00;;;6.00;;
74177;SDS011;62540;48.456;-4.456;2023-09-07T01:20:44;7.75;;;6.50;;
74177;SDS011;62540;48.456;-4.456;2023-09-07T01:23:11;8.75;;;7.00;;
74177;SDS011;62540;48.456;-4.456;2023-09-07T01:25:39;6.50;;;6.50;;
74177;SDS011;62540;48.456;-4.456;2023-09-07T01:28:06;7.00;;;7.00;;
74177;SDS011;62540;48.456;-4.456;2023-09-07T01:30:34;6.00;;;6.00;;
74177;SDS011;62540;48.456;-4.456;2023-09-07T01:33:00;8.00;;;7.25;;
74177;SDS011;62540;48.456;-4.456;2023-09-07T01:35:27;7.75;;;7.00;;
74177;SDS011;62540;48.456;-4.456;2023-09-07T01:37:52;7.25;;;6.25;;
74177;SDS011;62540;48.456;-4.456;2023-09-07T01:40:18;7.50;;;7.25;;
74177;SDS011;62540;48.456;-4.456;2023-09-07T01:42:43;7.50;;;7.00;;
74177;SDS011;62540;48.456;-4.456;2023-09-07T01:45:09;7.75;;;7.75;;
74177;SDS011;62540;48.456;-4.456;2023-09-07T01:47:34;6.75;;;6.75;;
74177;SDS011;62540;48.456;-4.456;2023-09-07T01:50:00;10.50;;;8.75;;
74177;SDS011;62540;48.456;-4.456;2023-09-07T01:52:25;10.50;;;7.50;;
74177;SDS011;62540;48.456;-4.456;2023-09-07T01:54:50;7.75;;;5.75;;
74177;SDS011;62540;48.456;-4.456;2023-09-07T01:57:16;7.50;;;7.00;;
74177;SDS011;62540;48.456;-4.456;2023-09-07T01:59:41;7.00;;;6.25;;
74177;SDS011;62540;48.456;-4.456;2023-09-07T02:02:06;9.00;;;7.00;;
74177;SDS011;62540;48.456;-4.456;2023-09-07T02:04:32;8.75;;;7.50;;
74177;SDS011;62540;48.456;-4.456;2023-09-07T02:06:58;7.25;;;7.00;;
74177;SDS011;62540;48.456;-4.456;2023-09-07T02:09:25;7.25;;;7.25;;
74177;SDS011;62540;48.456;-4.456;2023-09-07T02:11:50;4.25;;;3.00;;
74177;SDS011;62540;48.456;-4.456;2023-09-07T02:14:15;7.00;;;6.00;;
74177;SDS011;62540;48.456;-4.456;2023-09-07T02:16:41;9.50;;;7.25;;
74177;SDS011;62540;48.456;-4.456;2023-09-07T02:19:06;9.50;;;8.00;;
74177;SDS011;62540;48.456;-4.456;2023-09-07T02:21:32;7.75;;;6.75;;
74177;SDS011;62540;48.456;-4.456;2023-09-07T02:23:58;9.50;;;7.75;;
74177;SDS011;62540;48.456;-4.456;2023-09-07T02:26:23;7.00;;;6.25;;
74177;SDS011;62540;48.456;-4.456;2023-09-07T02:28:49;8.00;;;8.00;;
74177;SDS011;62540;48.456;-4.456;2023-09-07T02:31:14;8.25;;;8.00;;
74177;SDS011;62540;48.456;-4.456;2023-09-07T02:33:40;10.00;;;8.00;;
74177;SDS011;62540;48.456;-4.456;2023-09-07T02:36:05;7.75;;;7.75;;
74177;SDS011;62540;48.456;-4.456;2023-09-07T02:38:31;9.00;;;8.00;;
74177;SDS011;62540;48.456;-4.456;2023-09-07T02:40:56;10.00;;;8.50;;
74177;SDS011;62540;48.456;-4.456;2023-09-07T02:43:22;9.00;;;7.50;;
74177;SDS011;62540;48.456;-4.456;2023-09-07T02:45:48;8.25;;;7.25;;
74177;SDS011;62540;48.456;-4.456;2023-09-07T02:48:15;10.75;;;7.00;;
74177;SDS011;62540;48.456;-4.456;2023-09-07T02:50:40;8.25;;;7.25;;
74177;SDS011;62540;48.456;-4.456;2023-09-07T02:53:06;12.75;;;8.50;;
74177;SDS011;62540;48.456;-4.456;2023-09-07T02:55:31;10.00;;;7.75;;
74177;SDS011;62540;48.456;-4.456;2023-09-07T02:57:56;9.00;;;8.00;;
74177;SDS011;62540;48.456;-4.456;2023-09-07T03:00:22;8.75;;;7.25;;
74177;SDS011;62540;48.456;-4.456;2023-09-07T03:02:48;10.00;;;9.25;;
74177;SDS011;62540;48.456;-4.456;2023-09-07T03:05:17;9.00;;;8.00;;
74177;SDS011;62540;48.456;-4.456;2023-09-07T03:07:44;8.50;;;8.00;;
74177;SDS011;62540;48.456;-4.456;2023-09-07T03:10:10;9.25;;;9.25;;
74177;SDS011;62540;48.456;-4.456;2023-09-07T03:12:35;6.50;;;6.00;;
74177;SDS011;62540;48.456;-4.456;2023-09-07T03:15:01;8.50;;;7.50;;
74177;SDS011;62540;48.456;-4.456;2023-09-07T03:17:29;8.75;;;8.25;;
74177;SDS011;62540;48.456;-4.456;2023-09-07T03:19:55;7.25;;;7.25;;
74177;SDS011;62540;48.456;-4.456;2023-09-07T03:22:22;8.50;;;8.25;;
74177;SDS011;62540;48.456;-4.456;2023-09-07T03:24:49;8.00;;;8.00;;
74177;SDS011;62540;48.456;-4.456;2023-09-07T03:27:15;8.50;;;7.50;;
74177;SDS011;62540;48.456;-4.456;2023-09-07T03:29:41;10.00;;;8.00;;
74177;SDS011;62540;48.456;-4.456;2023-09-07T03:32:06;8.00;;;7.25;;
74177;SDS011;62540;48.456;-4.456;2023-09-07T03:34:33;9.00;;;8.00;;
74177;SDS011;62540;48.456;-4.456;2023-09-07T03:36:58;10.75;;;9.00;;
74177;SDS011;62540;48.456;-4.456;2023-09-07T03:39:24;9.75;;;8.25;;
74177;SDS011;62540;48.456;-4.456;2023-09-07T03:41:49;9.00;;;8.00;;
74177;SDS011;62540;48.456;-4.456;2023-09-07T03:44:14;9.50;;;9.00;;
74177;SDS011;62540;48.456;-4.456;2023-09-07T03:46:40;9.50;;;7.50;;
74177;SDS011;62540;48.456;-4.456;2023-09-07T03:49:05;7.00;;;7.00;;
74177;SDS011;62540;48.456;-4.456;2023-09-07T03:51:31;10.75;;;7.50;;
74177;SDS011;62540;48.456;-4.456;2023-09-07T03:53:57;12.25;;;8.25;;
74177;SDS011;62540;48.456;-4.456;2023-09-07T03:56:22;10.75;;;7.75;;
74177;SDS011;62540;48.456;-4.456;2023-09-07T03:58:48;9.00;;;7.75;;
74177;SDS011;62540;48.456;-4.456;2023-09-07T04:01:13;7.50;;;7.25;;
74177;SDS011;62540;48.456;-4.456;2023-09-07T04:03:39;9.50;;;8.50;;
74177;SDS011;62540;48.456;-4.456;2023-09-07T04:06:05;9.00;;;7.25;;
74177;SDS011;62540;48.456;-4.456;2023-09-07T04:08:31;9.00;;;8.00;;
74177;SDS011;62540;48.456;-4.456;2023-09-07T04:10:56;10.25;;;8.50;;
74177;SDS011;62540;48.456;-4.456;2023-09-07T04:13:22;7.50;;;7.00;;
74177;SDS011;62540;48.456;-4.456;2023-09-07T04:15:47;12.25;;;9.50;;
74177;SDS011;62540;48.456;-4.456;2023-09-07T04:18:13;10.75;;;9.75;;
74177;SDS011;62540;48.456;-4.456;2023-09-07T04:20:40;12.25;;;9.25;;
74177;SDS011;62540;48.456;-4.456;2023-09-07T04:23:06;11.50;;;9.00;;
74177;SDS011;62540;48.456;-4.456;2023-09-07T04:25:31;8.75;;;8.00;;
74177;SDS011;62540;48.456;-4.456;2023-09-07T04:27:57;8.25;;;7.00;;
74177;SDS011;62540;48.456;-4.456;2023-09-07T04:30:23;9.00;;;7.75;;
74177;SDS011;62540;48.456;-4.456;2023-09-07T04:32:48;9.75;;;9.50;;
74177;SDS011;62540;48.456;-4.456;2023-09-07T04:35:14;10.75;;;9.75;;
74177;SDS011;62540;48.456;-4.456;2023-09-07T04:37:41;10.50;;;10.00;;
74177;SDS011;62540;48.456;-4.456;2023-09-07T04:40:08;9.00;;;8.25;;
74177;SDS011;62540;48.456;-4.456;2023-09-07T04:42:34;10.25;;;9.75;;
74177;SDS011;62540;48.456;-4.456;2023-09-07T04:44:59;10.50;;;9.50;;
74177;SDS011;62540;48.456;-4.456;2023-09-07T04:47:24;10.75;;;9.75;;
74177;SDS011;62540;48.456;-4.456;2023-09-07T04:49:50;13.25;;;10.25;;
74177;SDS011;62540;48.456;-4.456;2023-09-07T04:52:16;8.25;;;7.00;;
74177;SDS011;62540;48.456;-4.456;2023-09-07T04:54:41;9.25;;;9.25;;
74177;SDS011;62540;48.456;-4.456;2023-09-07T04:57:06;10.25;;;9.00;;
74177;SDS011;62540;48.456;-4.456;2023-09-07T04:59:32;8.25;;;8.25;;
74177;SDS011;62540;48.456;-4.456;2023-09-07T05:02:00;9.00;;;8.25;;
74177;SDS011;62540;48.456;-4.456;2023-09-07T05:04:28;10.50;;;10.00;;
74177;SDS011;62540;48.456;-4.456;2023-09-07T05:06:56;7.75;;;7.00;;
74177;SDS011;62540;48.456;-4.456;2023-09-07T05:09:21;9.25;;;8.50;;
74177;SDS011;62540;48.456;-4.456;2023-09-07T05:11:48;9.25;;;8.25;;
74177;SDS011;62540;48.456;-4.456;2023-09-07T05:14:14;11.25;;;11.00;;
74177;SDS011;62540;48.456;-4.456;2023-09-07T05:16:41;10.00;;;9.00;;
74177;SDS011;62540;48.456;-4.456;2023-09-07T05:19:08;8.25;;;8.25;;
74177;SDS011;62540;48.456;-4.456;2023-09-07T05:21:33;10.00;;;9.50;;
74177;SDS011;62540;48.456;-4.456;2023-09-07T05:23:58;10.75;;;9.25;;
74177;SDS011;62540;48.456;-4.456;2023-09-07T05:26:24;11.00;;;9.50;;
74177;SDS011;62540;48.456;-4.456;2023-09-07T05:28:49;10.75;;;8.75;;
74177;SDS011;62540;48.456;-4.456;2023-09-07T05:31:15;10.00;;;9.50;;
74177;SDS011;62540;48.456;-4.456;2023-09-07T05:33:40;10.25;;;9.50;;
74177;SDS011;62540;48.456;-4.456;2023-09-07T05:36:06;10.25;;;9.50;;
74177;SDS011;62540;48.456;-4.456;2023-09-07T05:38:31;11.75;;;11.00;;
74177;SDS011;62540;48.456;-4.456;2023-09-07T05:40:57;9.25;;;8.00;;
74177;SDS011;62540;48.456;-4.456;2023-09-07T05:43:22;10.25;;;9.50;;
74177;SDS011;62540;48.456;-4.456;2023-09-07T05:45:48;13.75;;;12.00;;
74177;SDS011;62540;48.456;-4.456;2023-09-07T05:48:13;10.00;;;9.25;;
74177;SDS011;62540;48.456;-4.456;2023-09-07T05:50:42;11.50;;;10.75;;
74177;SDS011;62540;48.456;-4.456;2023-09-07T05:53:08;9.75;;;9.25;;
74177;SDS011;62540;48.456;-4.456;2023-09-07T05:55:33;12.75;;;11.50;;
74177;SDS011;62540;48.456;-4.456;2023-09-07T05:57:59;11.25;;;8.25;;
74177;SDS011;62540;48.456;-4.456;2023-09-07T06:00:25;11.00;;;11.00;;
74177;SDS011;62540;48.456;-4.456;2023-09-07T06:02:50;7.25;;;7.25;;
74177;SDS011;62540;48.456;-4.456;2023-09-07T06:05:16;14.00;;;10.25;;
74177;SDS011;62540;48.456;-4.456;2023-09-07T06:07:42;8.75;;;8.25;;
74177;SDS011;62540;48.456;-4.456;2023-09-07T06:10:08;10.50;;;9.75;;
74177;SDS011;62540;48.456;-4.456;2023-09-07T06:12:34;12.50;;;9.00;;
74177;SDS011;62540;48.456;-4.456;2023-09-07T06:15:00;9.75;;;9.50;;
74177;SDS011;62540;48.456;-4.456;2023-09-07T06:17:26;12.00;;;10.75;;
74177;SDS011;62540;48.456;-4.456;2023-09-07T06:19:53;10.75;;;9.25;;
74177;SDS011;62540;48.456;-4.456;2023-09-07T06:22:19;13.75;;;10.00;;
74177;SDS011;62540;48.456;-4.456;2023-09-07T06:24:45;11.00;;;9.25;;
74177;SDS011;62540;48.456;-4.456;2023-09-07T06:27:10;9.75;;;8.00;;
74177;SDS011;62540;48.456;-4.456;2023-09-07T06:29:35;9.00;;;8.50;;
74177;SDS011;62540;48.456;-4.456;2023-09-07T06:32:01;13.50;;;11.00;;
74177;SDS011;62540;48.456;-4.456;2023-09-07T06:34:26;9.25;;;8.75;;
74177;SDS011;62540;48.456;-4.456;2023-09-07T06:36:51;10.00;;;9.00;;
74177;SDS011;62540;48.456;-4.456;2023-09-07T06:39:17;10.00;;;9.00;;
74177;SDS011;62540;48.456;-4.456;2023-09-07T06:41:45;11.50;;;9.75;;
74177;SDS011;62540;48.456;-4.456;2023-09-07T06:44:11;11.50;;;10.75;;
74177;SDS011;62540;48.456;-4.456;2023-09-07T06:46:37;8.25;;;8.25;;
74177;SDS011;62540;48.456;-4.456;2023-09-07T06:49:02;10.75;;;9.75;;
74177;SDS011;62540;48.456;-4.456;2023-09-07T06:51:29;12.50;;;11.50;;
74177;SDS011;62540;48.456;-4.456;2023-09-07T06:53:55;11.75;;;10.75;;
74177;SDS011;62540;48.456;-4.456;2023-09-07T06:56:21;7.75;;;7.50;;
74177;SDS011;62540;48.456;-4.456;2023-09-07T06:58:46;11.25;;;11.00;;
74177;SDS011;62540;48.456;-4.456;2023-09-07T07:01:11;10.25;;;10.00;;
74177;SDS011;62540;48.456;-4.456;2023-09-07T07:03:37;11.00;;;10.00;;
74177;SDS011;62540;48.456;-4.456;2023-09-07T07:06:02;11.75;;;10.75;;
74177;SDS011;62540;48.456;-4.456;2023-09-07T07:08:28;14.00;;;10.75;;
74177;SDS011;62540;48.456;-4.456;2023-09-07T07:10:53;11.50;;;9.25;;
74177;SDS011;62540;48.456;-4.456;2023-09-07T07:13:18;8.00;;;8.00;;
74177;SDS011;62540;48.456;-4.456;2023-09-07T07:15:44;10.25;;;10.00;;
74177;SDS011;62540;48.456;-4.456;2023-09-07T07:18:10;12.00;;;11.25;;
74177;SDS011;62540;48.456;-4.456;2023-09-07T07:20:39;10.50;;;9.25;;
74177;SDS011;62540;48.456;-4.456;2023-09-07T07:23:05;11.50;;;10.50;;
74177;SDS011;62540;48.456;-4.456;2023-09-07T07:25:33;9.25;;;8.75;;
74177;SDS011;62540;48.456;-4.456;2023-09-07T07:27:59;11.25;;;10.25;;
74177;SDS011;62540;48.456;-4.456;2023-09-07T07:30:29;11.25;;;9.00;;
74177;SDS011;62540;48.456;-4.456;2023-09-07T07:32:55;11.25;;;10.00;;
74177;SDS011;62540;48.456;-4.456;2023-09-07T07:35:20;15.00;;;11.00;;
74177;SDS011;62540;48.456;-4.456;2023-09-07T07:37:46;12.75;;;12.00;;
74177;SDS011;62540;48.456;-4.456;2023-09-07T07:40:11;12.00;;;11.00;;
74177;SDS011;62540;48.456;-4.456;2023-09-07T07:42:36;11.00;;;10.25;;
74177;SDS011;62540;48.456;-4.456;2023-09-07T07:45:02;10.25;;;10.00;;
74177;SDS011;62540;48.456;-4.456;2023-09-07T07:47:28;9.50;;;8.50;;
74177;SDS011;62540;48.456;-4.456;2023-09-07T07:49:53;8.75;;;8.75;;
74177;SDS011;62540;48.456;-4.456;2023-09-07T07:52:18;11.25;;;10.00;;
74177;SDS011;62540;48.456;-4.456;2023-09-07T07:54:44;10.50;;;9.75;;
74177;SDS011;62540;48.456;-4.456;2023-09-07T07:57:09;14.00;;;11.75;;
74177;SDS011;62540;48.456;-4.456;2023-09-07T07:59:35;11.25;;;9.75;;
74177;SDS011;62540;48.456;-4.456;2023-09-07T08:02:01;11.75;;;11.00;;
74177;SDS011;62540;48.456;-4.456;2023-09-07T08:04:26;8.25;;;8.25;;
74177;SDS011;62540;48.456;-4.456;2023-09-07T08:06:53;10.75;;;10.75;;
74177;SDS011;62540;48.456;-4.456;2023-09-07T08:09:23;12.00;;;10.25;;
74177;SDS011;62540;48.456;-4.456;2023-09-07T08:11:48;10.00;;;8.50;;
74177;SDS011;62540;48.456;-4.456;2023-09-07T08:14:14;12.50;;;10.25;;
74177;SDS011;62540;48.456;-4.456;2023-09-07T08:16:39;13.50;;;10.50;;
74177;SDS011;62540;48.456;-4.456;2023-09-07T08:19:04;12.25;;;9.50;;
74177;SDS011;62540;48.456;-4.456;2023-09-07T08:21:30;12.25;;;10.50;;
74177;SDS011;62540;48.456;-4.456;2023-09-07T08:23:55;14.25;;;10.75;;
74177;SDS011;62540;48.456;-4.456;2023-09-07T08:26:21;11.00;;;11.00;;
74177;SDS011;62540;48.456;-4.456;2023-09-07T08:28:46;11.25;;;10.75;;
74177;SDS011;62540;48.456;-4.456;2023-09-07T08:31:12;14.75;;;12.25;;
74177;SDS011;62540;48.456;-4.456;2023-09-07T08:33:39;10.00;;;10.00;;
74177;SDS011;62540;48.456;-4.456;2023-09-07T08:36:05;10.25;;;10.25;;
74177;SDS011;62540;48.456;-4.456;2023-09-07T08:38:31;13.75;;;12.50;;
74177;SDS011;62540;48.456;-4.456;2023-09-07T08:41:00;10.25;;;9.00;;
74177;SDS011;62540;48.456;-4.456;2023-09-07T08:43:29;17.00;;;11.75;;
74177;SDS011;62540;48.456;-4.456;2023-09-07T08:46:09;11.25;;;10.50;;
74177;SDS011;62540;48.456;-4.456;2023-09-07T08:48:39;14.25;;;10.50;;
74177;SDS011;62540;48.456;-4.456;2023-09-07T08:51:07;11.25;;;9.75;;
74177;SDS011;62540;48.456;-4.456;2023-09-07T08:53:36;14.00;;;11.00;;
74177;SDS011;62540;48.456;-4.456;2023-09-07T08:56:02;11.50;;;10.75;;
74177;SDS011;62540;48.456;-4.456;2023-09-07T08:58:28;15.25;;;11.25;;
74177;SDS011;62540;48.456;-4.456;2023-09-07T09:00:54;13.75;;;11.75;;
74177;SDS011;62540;48.456;-4.456;2023-09-07T09:03:22;11.25;;;11.00;;
74177;SDS011;62540;48.456;-4.456;2023-09-07T09:05:48;10.00;;;9.00;;
74177;SDS011;62540;48.456;-4.456;2023-09-07T09:08:15;10.50;;;9.50;;
74177;SDS011;62540;48.456;-4.456;2023-09-07T09:10:45;12.25;;;10.50;;
74177;SDS011;62540;48.456;-4.456;2023-09-07T09:13:11;12.75;;;10.50;;
74177;SDS011;62540;48.456;-4.456;2023-09-07T09:15:36;11.00;;;10.25;;
74177;SDS011;62540;48.456;-4.456;2023-09-07T09:18:09;10.25;;;10.00;;
74177;SDS011;62540;48.456;-4.456;2023-09-07T09:20:37;12.75;;;12.25;;
74177;SDS011;62540;48.456;-4.456;2023-09-07T09:23:03;9.25;;;8.75;;
74177;SDS011;62540;48.456;-4.456;2023-09-07T09:25:30;11.50;;;9.75;;
74177;SDS011;62540;48.456;-4.456;2023-09-07T09:27:56;9.75;;;9.50;;
74177;SDS011;62540;48.456;-4.456;2023-09-07T09:30:22;10.50;;;9.75;;
74177;SDS011;62540;48.456;-4.456;2023-09-07T09:32:48;13.50;;;12.25;;
74177;SDS011;62540;48.456;-4.456;2023-09-07T09:35:15;12.00;;;11.25;;
74177;SDS011;62540;48.456;-4.456;2023-09-07T09:37:48;12.00;;;11.25;;
74177;SDS011;62540;48.456;-4.456;2023-09-07T09:40:14;12.00;;;10.75;;
74177;SDS011;62540;48.456;-4.456;2023-09-07T09:42:43;13.50;;;11.25;;
74177;SDS011;62540;48.456;-4.456;2023-09-07T09:45:09;17.00;;;14.50;;
74177;SDS011;62540;48.456;-4.456;2023-09-07T09:47:40;13.75;;;12.50;;
74177;SDS011;62540;48.456;-4.456;2023-09-07T09:50:07;10.75;;;9.75;;
74177;SDS011;62540;48.456;-4.456;2023-09-07T09:52:37;12.50;;;11.50;;
74177;SDS011;62540;48.456;-4.456;2023-09-07T09:55:03;14.75;;;14.00;;
74177;SDS011;62540;48.456;-4.456;2023-09-07T09:57:32;14.50;;;12.25;;
74177;SDS011;62540;48.456;-4.456;2023-09-07T09:59:58;14.50;;;13.75;;
74177;SDS011;62540;48.456;-4.456;2023-09-07T10:02:24;15.00;;;12.50;;
74177;SDS011;62540;48.456;-4.456;2023-09-07T10:04:51;11.75;;;11.25;;
74177;SDS011;62540;48.456;-4.456;2023-09-07T10:07:18;15.25;;;13.50;;
74177;SDS011;62540;48.456;-4.456;2023-09-07T10:09:44;14.25;;;13.25;;
74177;SDS011;62540;48.456;-4.456;2023-09-07T10:12:12;11.50;;;9.50;;
74177;SDS011;62540;48.456;-4.456;2023-09-07T10:14:38;11.50;;;10.25;;
74177;SDS011;62540;48.456;-4.456;2023-09-07T10:17:07;11.75;;;11.50;;
74177;SDS011;62540;48.456;-4.456;2023-09-07T10:19:34;12.00;;;10.50;;
74177;SDS011;62540;48.456;-4.456;2023-09-07T10:22:01;10.75;;;10.00;;
74177;SDS011;62540;48.456;-4.456;2023-09-07T10:27:01;12.00;;;10.00;;
74177;SDS011;62540;48.456;-4.456;2023-09-07T10:29:39;11.50;;;9.75;;
74177;SDS011;62540;48.456;-4.456;2023-09-07T10:32:08;11.25;;;10.75;;
74177;SDS011;62540;48.456;-4.456;2023-09-07T10:34:37;11.75;;;11.50;;
74177;SDS011;62540;48.456;-4.456;2023-09-07T10:37:04;12.00;;;11.25;;
74177;SDS011;62540;48.456;-4.456;2023-09-07T10:39:31;12.75;;;10.75;;
74177;SDS011;62540;48.456;-4.456;2023-09-07T10:41:57;11.25;;;11.25;;
74177;SDS011;62540;48.456;-4.456;2023-09-07T10:44:26;13.00;;;12.25;;
74177;SDS011;62540;48.456;-4.456;2023-09-07T10:46:52;13.50;;;12.25;;
74177;SDS011;62540;48.456;-4.456;2023-09-07T10:49:17;13.75;;;11.75;;
74177;SDS011;62540;48.456;-4.456;2023-09-07T10:51:43;12.25;;;11.25;;
74177;SDS011;62540;48.456;-4.456;2023-09-07T10:54:16;16.50;;;13.50;;
74177;SDS011;62540;48.456;-4.456;2023-09-07T10:56:45;11.50;;;11.25;;
74177;SDS011;62540;48.456;-4.456;2023-09-07T10:59:14;13.25;;;11.25;;
74177;SDS011;62540;48.456;-4.456;2023-09-07T11:01:40;12.25;;;11.75;;
74177;SDS011;62540;48.456;-4.456;2023-09-07T11:04:06;15.75;;;11.50;;
74177;SDS011;62540;48.456;-4.456;2023-09-07T11:06:33;14.75;;;12.00;;
74177;SDS011;62540;48.456;-4.456;2023-09-07T11:08:59;15.25;;;12.75;;
74177;SDS011;62540;48.456;-4.456;2023-09-07T11:11:26;11.25;;;10.50;;
74177;SDS011;62540;48.456;-4.456;2023-09-07T11:13:52;10.00;;;10.00;;
74177;SDS011;62540;48.456;-4.456;2023-09-07T11:16:17;10.50;;;9.75;;
74177;SDS011;62540;48.456;-4.456;2023-09-07T11:18:42;13.00;;;12.75;;
74177;SDS011;62540;48.456;-4.456;2023-09-07T11:21:09;11.25;;;11.25;;
74177;SDS011;62540;48.456;-4.456;2023-09-07T11:23:35;9.75;;;9.50;;
74177;SDS011;62540;48.456;-4.456;2023-09-07T11:26:06;11.75;;;9.25;;
74177;SDS011;62540;48.456;-4.456;2023-09-07T11:28:33;12.50;;;12.25;;
74177;SDS011;62540;48.456;-4.456;2023-09-07T11:30:58;11.75;;;10.75;;
74177;SDS011;62540;48.456;-4.456;2023-09-07T11:33:24;10.75;;;10.75;;
74177;SDS011;62540;48.456;-4.456;2023-09-07T11:35:50;12.00;;;11.00;;
74177;SDS011;62540;48.456;-4.456;2023-09-07T11:38:17;11.25;;;11.25;;
74177;SDS011;62540;48.456;-4.456;2023-09-07T11:40:43;10.25;;;10.00;;
74177;SDS011;62540;48.456;-4.456;2023-09-07T11:43:13;9.00;;;8.75;;
74177;SDS011;62540;48.456;-4.456;2023-09-07T11:45:41;9.00;;;8.00;;
74177;SDS011;62540;48.456;-4.456;2023-09-07T11:48:08;9.50;;;8.50;;
74177;SDS011;62540;48.456;-4.456;2023-09-07T11:50:36;12.00;;;11.25;;
74177;SDS011;62540;48.456;-4.456;2023-09-07T11:53:03;11.25;;;9.50;;
74177;SDS011;62540;48.456;-4.456;2023-09-07T11:55:29;14.00;;;10.00;;
74177;SDS011;62540;48.456;-4.456;2023-09-07T11:57:54;11.25;;;9.75;;
74177;SDS011;62540;48.456;-4.456;2023-09-07T12:00:20;9.50;;;9.50;;
74177;SDS011;62540;48.456;-4.456;2023-09-07T12:02:47;16.75;;;12.75;;
74177;SDS011;62540;48.456;-4.456;2023-09-07T12:05:13;14.00;;;13.00;;
74177;SDS011;62540;48.456;-4.456;2023-09-07T12:07:40;11.50;;;10.50;;
74177;SDS011;62540;48.456;-4.456;2023-09-07T12:10:08;9.75;;;8.25;;
74177;SDS011;62540;48.456;-4.456;2023-09-07T12:12:38;10.00;;;9.50;;
74177;SDS011;62540;48.456;-4.456;2023-09-07T12:15:03;11.00;;;10.00;;
74177;SDS011;62540;48.456;-4.456;2023-09-07T12:17:30;9.25;;;9.00;;
74177;SDS011;62540;48.456;-4.456;2023-09-07T12:19:55;10.25;;;9.25;;
74177;SDS011;62540;48.456;-4.456;2023-09-07T12:22:21;9.00;;;8.00;;
74177;SDS011;62540;48.456;-4.456;2023-09-07T12:24:46;10.00;;;8.75;;
74177;SDS011;62540;48.456;-4.456;2023-09-07T12:27:12;11.50;;;8.75;;
74177;SDS011;62540;48.456;-4.456;2023-09-07T12:29:37;11.75;;;10.50;;
74177;SDS011;62540;48.456;-4.456;2023-09-07T12:32:02;8.50;;;7.50;;
74177;SDS011;62540;48.456;-4.456;2023-09-07T12:34:28;9.25;;;9.25;;
74177;SDS011;62540;48.456;-4.456;2023-09-07T12:36:53;8.25;;;7.25;;
74177;SDS011;62540;48.456;-4.456;2023-09-07T12:39:19;12.00;;;10.00;;
74177;SDS011;62540;48.456;-4.456;2023-09-07T12:41:44;11.25;;;10.00;;
74177;SDS011;62540;48.456;-4.456;2023-09-07T12:44:09;12.25;;;9.25;;
74177;SDS011;62540;48.456;-4.456;2023-09-07T12:46:35;9.75;;;9.00;;
74177;SDS011;62540;48.456;-4.456;2023-09-07T12:49:02;9.25;;;8.50;;
74177;SDS011;62540;48.456;-4.456;2023-09-07T12:51:28;8.25;;;7.50;;
74177;SDS011;62540;48.456;-4.456;2023-09-07T12:53:53;10.00;;;8.25;;
74177;SDS011;62540;48.456;-4.456;2023-09-07T12:56:18;11.00;;;8.00;;
74177;SDS011;62540;48.456;-4.456;2023-09-07T12:58:44;9.25;;;7.00;;
74177;SDS011;62540;48.456;-4.456;2023-09-07T13:01:09;9.00;;;8.00;;
74177;SDS011;62540;48.456;-4.456;2023-09-07T13:03:37;8.50;;;8.25;;
74177;SDS011;62540;48.456;-4.456;2023-09-07T13:06:02;8.50;;;7.75;;
74177;SDS011;62540;48.456;-4.456;2023-09-07T13:08:28;6.75;;;4.50;;
74177;SDS011;62540;48.456;-4.456;2023-09-07T13:10:55;10.75;;;8.25;;
74177;SDS011;62540;48.456;-4.456;2023-09-07T13:13:21;10.00;;;9.00;;
74177;SDS011;62540;48.456;-4.456;2023-09-07T13:15:47;7.50;;;7.00;;
74177;SDS011;62540;48.456;-4.456;2023-09-07T13:18:13;8.75;;;8.75;;
74177;SDS011;62540;48.456;-4.456;2023-09-07T13:20:38;6.25;;;6.00;;
74177;SDS011;62540;48.456;-4.456;2023-09-07T13:23:04;8.50;;;8.00;;
74177;SDS011;62540;48.456;-4.456;2023-09-07T13:25:30;6.75;;;6.75;;
74177;SDS011;62540;48.456;-4.456;2023-09-07T13:27:56;9.00;;;7.75;;
74177;SDS011;62540;48.456;-4.456;2023-09-07T13:30:22;10.75;;;9.50;;
74177;SDS011;62540;48.456;-4.456;2023-09-07T13:32:47;10.75;;;8.50;;
74177;SDS011;62540;48.456;-4.456;2023-09-07T13:35:14;8.00;;;7.00;;
74177;SDS011;62540;48.456;-4.456;2023-09-07T13:37:40;7.25;;;6.75;;
74177;SDS011;62540;48.456;-4.456;2023-09-07T13:40:06;7.75;;;7.00;;
74177;SDS011;62540;48.456;-4.456;2023-09-07T13:42:32;7.75;;;6.25;;
74177;SDS011;62540;48.456;-4.456;2023-09-07T13:44:58;10.00;;;10.00;;
74177;SDS011;62540;48.456;-4.456;2023-09-07T13:47:23;7.75;;;7.50;;
74177;SDS011;62540;48.456;-4.456;2023-09-07T13:49:49;12.50;;;9.00;;
74177;SDS011;62540;48.456;-4.456;2023-09-07T13:52:14;8.50;;;8.50;;
74177;SDS011;62540;48.456;-4.456;2023-09-07T13:54:39;10.50;;;8.75;;
74177;SDS011;62540;48.456;-4.456;2023-09-07T13:57:05;8.50;;;8.50;;
74177;SDS011;62540;48.456;-4.456;2023-09-07T13:59:30;11.75;;;11.25;;
74177;SDS011;62540;48.456;-4.456;2023-09-07T14:01:59;9.50;;;9.25;;
74177;SDS011;62540;48.456;-4.456;2023-09-07T14:04:24;11.00;;;11.00;;
74177;SDS011;62540;48.456;-4.456;2023-09-07T14:06:50;7.25;;;7.25;;
74177;SDS011;62540;48.456;-4.456;2023-09-07T14:09:15;9.50;;;8.00;;
74177;SDS011;62540;48.456;-4.456;2023-09-07T14:11:41;10.25;;;9.75;;
74177;SDS011;62540;48.456;-4.456;2023-09-07T14:14:06;11.50;;;11.50;;
74177;SDS011;62540;48.456;-4.456;2023-09-07T14:16:32;9.00;;;9.00;;
74177;SDS011;62540;48.456;-4.456;2023-09-07T14:18:58;12.50;;;11.00;;